sensor_id;sensor_type;location;lat;lon;timestamp;temperature;humidity
15713;DHT22;7957;51.608;6.916;2022-11-13T00:01:14;7.10;99.90
15713;DHT22;7957;51.608;6.916;2022-11-13T00:03:41;7.10;99.90
15713;DHT22;7957;51.608;6.916;2022-11-13T00:06:10;7.00;99.90
15713;DHT22;7957;51.608;6.916;2022-11-13T00:08:37;7.00;99.90
15713;DHT22;7957;51.608;6.916;2022-11-13T00:11:07;7.00;99.90
15713;DHT22;7957;51.608;6.916;2022-11-13T00:13:34;7.00;99.90
15713;DHT22;7957;51.608;6.916;2022-11-13T00:16:03;6.90;99.90
15713;DHT22;7957;51.608;6.916;2022-11-13T00:18:33;6.90;99.90
15713;DHT22;7957;51.608;6.916;2022-11-13T00:21:04;6.90;99.90
15713;DHT22;7957;51.608;6.916;2022-11-13T00:23:31;6.90;99.90
15713;DHT22;7957;51.608;6.916;2022-11-13T00:26:03;6.90;99.90
15713;DHT22;7957;51.608;6.916;2022-11-13T00:28:30;6.90;99.90
15713;DHT22;7957;51.608;6.916;2022-11-13T00:30:58;6.90;99.90
15713;DHT22;7957;51.608;6.916;2022-11-13T00:33:25;6.80;99.90
15713;DHT22;7957;51.608;6.916;2022-11-13T00:35:53;6.80;99.90
15713;DHT22;7957;51.608;6.916;2022-11-13T00:38:20;6.80;99.90
15713;DHT22;7957;51.608;6.916;2022-11-13T00:40:48;6.80;99.90
15713;DHT22;7957;51.608;6.916;2022-11-13T00:43:15;6.80;99.90
15713;DHT22;7957;51.608;6.916;2022-11-13T00:45:42;6.80;99.90
15713;DHT22;7957;51.608;6.916;2022-11-13T00:48:09;6.70;99.90
15713;DHT22;7957;51.608;6.916;2022-11-13T00:50:36;6.80;99.90
15713;DHT22;7957;51.608;6.916;2022-11-13T00:53:04;6.70;99.90
15713;DHT22;7957;51.608;6.916;2022-11-13T00:55:31;6.70;99.90
15713;DHT22;7957;51.608;6.916;2022-11-13T00:57:58;6.70;99.90
15713;DHT22;7957;51.608;6.916;2022-11-13T01:00:25;6.70;99.90
15713;DHT22;7957;51.608;6.916;2022-11-13T01:02:52;6.70;99.90
15713;DHT22;7957;51.608;6.916;2022-11-13T01:05:19;6.70;99.90
15713;DHT22;7957;51.608;6.916;2022-11-13T01:07:46;6.70;99.90
15713;DHT22;7957;51.608;6.916;2022-11-13T01:10:14;6.70;99.90
15713;DHT22;7957;51.608;6.916;2022-11-13T01:12:41;6.70;99.90
15713;DHT22;7957;51.608;6.916;2022-11-13T01:15:08;6.60;99.90
15713;DHT22;7957;51.608;6.916;2022-11-13T01:17:35;6.70;99.90
15713;DHT22;7957;51.608;6.916;2022-11-13T01:20:04;6.70;99.90
15713;DHT22;7957;51.608;6.916;2022-11-13T01:22:31;6.60;99.90
15713;DHT22;7957;51.608;6.916;2022-11-13T01:24:58;6.60;99.90
15713;DHT22;7957;51.608;6.916;2022-11-13T01:27:26;6.60;99.90
15713;DHT22;7957;51.608;6.916;2022-11-13T01:29:53;6.60;99.90
15713;DHT22;7957;51.608;6.916;2022-11-13T01:32:20;6.60;99.90
15713;DHT22;7957;51.608;6.916;2022-11-13T01:34:47;6.50;99.90
15713;DHT22;7957;51.608;6.916;2022-11-13T01:37:14;6.50;99.90
15713;DHT22;7957;51.608;6.916;2022-11-13T01:39:41;6.60;99.90
15713;DHT22;7957;51.608;6.916;2022-11-13T01:42:08;6.60;99.90
15713;DHT22;7957;51.608;6.916;2022-11-13T01:44:48;6.60;99.90
15713;DHT22;7957;51.608;6.916;2022-11-13T01:47:17;6.60;99.90
15713;DHT22;7957;51.608;6.916;2022-11-13T01:49:45;6.60;99.90
15713;DHT22;7957;51.608;6.916;2022-11-13T01:52:15;6.60;99.90
15713;DHT22;7957;51.608;6.916;2022-11-13T01:54:46;6.60;99.90
15713;DHT22;7957;51.608;6.916;2022-11-13T01:57:15;6.60;99.90
15713;DHT22;7957;51.608;6.916;2022-11-13T01:59:47;6.60;99.90
15713;DHT22;7957;51.608;6.916;2022-11-13T02:02:15;6.60;99.90
15713;DHT22;7957;51.608;6.916;2022-11-13T02:04:43;6.60;99.90
15713;DHT22;7957;51.608;6.916;2022-11-13T02:07:12;6.60;99.90
15713;DHT22;7957;51.608;6.916;2022-11-13T02:09:41;6.60;99.90
15713;DHT22;7957;51.608;6.916;2022-11-13T02:12:12;6.60;99.90
15713;DHT22;7957;51.608;6.916;2022-11-13T02:14:41;6.60;99.90
15713;DHT22;7957;51.608;6.916;2022-11-13T02:17:15;6.60;99.90
15713;DHT22;7957;51.608;6.916;2022-11-13T02:19:47;6.60;99.90
15713;DHT22;7957;51.608;6.916;2022-11-13T02:22:19;6.60;99.90
15713;DHT22;7957;51.608;6.916;2022-11-13T02:24:52;6.60;99.90
15713;DHT22;7957;51.608;6.916;2022-11-13T02:27:24;6.70;99.90
15713;DHT22;7957;51.608;6.916;2022-11-13T02:29:53;6.60;99.90
15713;DHT22;7957;51.608;6.916;2022-11-13T02:32:20;6.60;99.90
15713;DHT22;7957;51.608;6.916;2022-11-13T02:34:47;6.60;99.90
15713;DHT22;7957;51.608;6.916;2022-11-13T02:37:14;6.60;99.90
15713;DHT22;7957;51.608;6.916;2022-11-13T02:39:41;6.60;99.90
15713;DHT22;7957;51.608;6.916;2022-11-13T02:42:11;6.60;99.90
15713;DHT22;7957;51.608;6.916;2022-11-13T02:44:38;6.60;99.90
15713;DHT22;7957;51.608;6.916;2022-11-13T02:47:05;6.60;99.90
15713;DHT22;7957;51.608;6.916;2022-11-13T02:49:32;6.70;99.90
15713;DHT22;7957;51.608;6.916;2022-11-13T02:51:59;6.60;99.90
15713;DHT22;7957;51.608;6.916;2022-11-13T02:54:25;6.60;99.90
15713;DHT22;7957;51.608;6.916;2022-11-13T02:56:52;6.60;99.90
15713;DHT22;7957;51.608;6.916;2022-11-13T02:59:21;6.60;99.90
15713;DHT22;7957;51.608;6.916;2022-11-13T03:01:48;6.60;99.90
15713;DHT22;7957;51.608;6.916;2022-11-13T03:04:15;6.60;99.90
15713;DHT22;7957;51.608;6.916;2022-11-13T03:06:42;6.60;99.90
15713;DHT22;7957;51.608;6.916;2022-11-13T03:09:10;6.60;99.90
15713;DHT22;7957;51.608;6.916;2022-11-13T03:11:38;6.60;99.90
15713;DHT22;7957;51.608;6.916;2022-11-13T03:14:05;6.60;99.90
15713;DHT22;7957;51.608;6.916;2022-11-13T03:16:34;6.60;99.90
15713;DHT22;7957;51.608;6.916;2022-11-13T03:19:01;6.50;99.90
15713;DHT22;7957;51.608;6.916;2022-11-13T03:21:29;6.60;99.90
15713;DHT22;7957;51.608;6.916;2022-11-13T03:23:56;6.50;99.90
15713;DHT22;7957;51.608;6.916;2022-11-13T03:26:23;6.50;99.90
15713;DHT22;7957;51.608;6.916;2022-11-13T03:28:52;6.50;99.90
15713;DHT22;7957;51.608;6.916;2022-11-13T03:31:19;6.50;99.90
15713;DHT22;7957;51.608;6.916;2022-11-13T03:33:50;6.50;99.90
15713;DHT22;7957;51.608;6.916;2022-11-13T03:36:17;6.50;99.90
15713;DHT22;7957;51.608;6.916;2022-11-13T03:38:44;6.50;99.90
15713;DHT22;7957;51.608;6.916;2022-11-13T03:41:11;6.40;99.90
15713;DHT22;7957;51.608;6.916;2022-11-13T03:43:39;6.40;99.90
15713;DHT22;7957;51.608;6.916;2022-11-13T03:46:07;6.40;99.90
15713;DHT22;7957;51.608;6.916;2022-11-13T03:48:34;6.40;99.90
15713;DHT22;7957;51.608;6.916;2022-11-13T03:51:02;6.30;99.90
15713;DHT22;7957;51.608;6.916;2022-11-13T03:53:29;6.30;99.90
15713;DHT22;7957;51.608;6.916;2022-11-13T03:55:56;6.30;99.90
15713;DHT22;7957;51.608;6.916;2022-11-13T03:58:24;6.30;99.90
15713;DHT22;7957;51.608;6.916;2022-11-13T04:00:52;6.20;99.90
15713;DHT22;7957;51.608;6.916;2022-11-13T04:03:20;6.20;99.90
15713;DHT22;7957;51.608;6.916;2022-11-13T04:05:48;6.20;99.90
15713;DHT22;7957;51.608;6.916;2022-11-13T04:08:19;6.20;99.90
15713;DHT22;7957;51.608;6.916;2022-11-13T04:10:46;6.20;99.90
15713;DHT22;7957;51.608;6.916;2022-11-13T04:13:13;6.20;99.90
15713;DHT22;7957;51.608;6.916;2022-11-13T04:15:40;6.20;99.90
15713;DHT22;7957;51.608;6.916;2022-11-13T04:18:07;6.20;99.90
15713;DHT22;7957;51.608;6.916;2022-11-13T04:20:34;6.10;99.90
15713;DHT22;7957;51.608;6.916;2022-11-13T04:23:01;6.10;99.90
15713;DHT22;7957;51.608;6.916;2022-11-13T04:25:33;6.10;99.90
15713;DHT22;7957;51.608;6.916;2022-11-13T04:28:00;6.10;99.90
15713;DHT22;7957;51.608;6.916;2022-11-13T04:30:27;6.10;99.90
15713;DHT22;7957;51.608;6.916;2022-11-13T04:32:54;6.10;99.90
15713;DHT22;7957;51.608;6.916;2022-11-13T04:35:21;6.00;99.90
15713;DHT22;7957;51.608;6.916;2022-11-13T04:37:48;6.00;99.90
15713;DHT22;7957;51.608;6.916;2022-11-13T04:40:15;6.00;99.90
15713;DHT22;7957;51.608;6.916;2022-11-13T04:42:44;6.00;99.90
15713;DHT22;7957;51.608;6.916;2022-11-13T04:45:17;5.90;99.90
15713;DHT22;7957;51.608;6.916;2022-11-13T04:47:45;5.90;99.90
15713;DHT22;7957;51.608;6.916;2022-11-13T04:50:13;5.90;99.90
15713;DHT22;7957;51.608;6.916;2022-11-13T04:52:40;5.90;99.90
15713;DHT22;7957;51.608;6.916;2022-11-13T04:55:08;5.90;99.90
15713;DHT22;7957;51.608;6.916;2022-11-13T04:57:35;5.90;99.90
15713;DHT22;7957;51.608;6.916;2022-11-13T05:00:04;5.90;99.90
15713;DHT22;7957;51.608;6.916;2022-11-13T05:02:32;5.90;99.90
15713;DHT22;7957;51.608;6.916;2022-11-13T05:04:59;5.90;99.90
15713;DHT22;7957;51.608;6.916;2022-11-13T05:07:26;5.90;99.90
15713;DHT22;7957;51.608;6.916;2022-11-13T05:09:54;5.80;99.90
15713;DHT22;7957;51.608;6.916;2022-11-13T05:12:20;5.90;99.90
15713;DHT22;7957;51.608;6.916;2022-11-13T05:14:47;5.80;99.90
15713;DHT22;7957;51.608;6.916;2022-11-13T05:17:16;5.80;99.90
15713;DHT22;7957;51.608;6.916;2022-11-13T05:19:44;5.80;99.90
15713;DHT22;7957;51.608;6.916;2022-11-13T05:22:11;5.80;99.90
15713;DHT22;7957;51.608;6.916;2022-11-13T05:24:37;5.80;99.90
15713;DHT22;7957;51.608;6.916;2022-11-13T05:27:04;5.80;99.90
15713;DHT22;7957;51.608;6.916;2022-11-13T05:29:31;5.80;99.90
15713;DHT22;7957;51.608;6.916;2022-11-13T05:32:04;5.70;99.90
15713;DHT22;7957;51.608;6.916;2022-11-13T05:34:33;5.80;99.90
15713;DHT22;7957;51.608;6.916;2022-11-13T05:37:00;5.80;99.90
15713;DHT22;7957;51.608;6.916;2022-11-13T05:39:26;5.70;99.90
15713;DHT22;7957;51.608;6.916;2022-11-13T05:41:53;5.70;99.90
15713;DHT22;7957;51.608;6.916;2022-11-13T05:44:20;5.70;99.90
15713;DHT22;7957;51.608;6.916;2022-11-13T05:46:48;5.70;99.90
15713;DHT22;7957;51.608;6.916;2022-11-13T05:49:15;5.70;99.90
15713;DHT22;7957;51.608;6.916;2022-11-13T05:51:44;5.70;99.90
15713;DHT22;7957;51.608;6.916;2022-11-13T05:54:11;5.60;99.90
15713;DHT22;7957;51.608;6.916;2022-11-13T05:56:37;5.60;99.90
15713;DHT22;7957;51.608;6.916;2022-11-13T05:59:07;5.60;99.90
15713;DHT22;7957;51.608;6.916;2022-11-13T06:01:35;5.60;99.90
15713;DHT22;7957;51.608;6.916;2022-11-13T06:04:04;5.60;99.90
15713;DHT22;7957;51.608;6.916;2022-11-13T06:06:32;5.60;99.90
15713;DHT22;7957;51.608;6.916;2022-11-13T06:09:03;5.60;99.90
15713;DHT22;7957;51.608;6.916;2022-11-13T06:11:32;5.60;99.90
15713;DHT22;7957;51.608;6.916;2022-11-13T06:13:59;5.60;99.90
15713;DHT22;7957;51.608;6.916;2022-11-13T06:16:27;5.60;99.90
15713;DHT22;7957;51.608;6.916;2022-11-13T06:18:56;5.50;99.90
15713;DHT22;7957;51.608;6.916;2022-11-13T06:21:25;5.50;99.90
15713;DHT22;7957;51.608;6.916;2022-11-13T06:23:52;5.50;99.90
15713;DHT22;7957;51.608;6.916;2022-11-13T06:26:22;5.50;99.90
15713;DHT22;7957;51.608;6.916;2022-11-13T06:28:49;5.50;99.90
15713;DHT22;7957;51.608;6.916;2022-11-13T06:31:19;5.50;99.90
15713;DHT22;7957;51.608;6.916;2022-11-13T06:33:47;5.50;99.90
15713;DHT22;7957;51.608;6.916;2022-11-13T06:36:16;5.40;99.90
15713;DHT22;7957;51.608;6.916;2022-11-13T06:38:43;5.40;99.90
15713;DHT22;7957;51.608;6.916;2022-11-13T06:41:12;5.50;99.90
15713;DHT22;7957;51.608;6.916;2022-11-13T06:43:41;5.40;99.90
15713;DHT22;7957;51.608;6.916;2022-11-13T06:46:12;5.40;99.90
15713;DHT22;7957;51.608;6.916;2022-11-13T06:48:40;5.40;99.90
15713;DHT22;7957;51.608;6.916;2022-11-13T06:51:10;5.40;99.90
15713;DHT22;7957;51.608;6.916;2022-11-13T06:53:38;5.40;99.90
15713;DHT22;7957;51.608;6.916;2022-11-13T06:56:06;5.40;99.90
15713;DHT22;7957;51.608;6.916;2022-11-13T06:58:33;5.40;99.90
15713;DHT22;7957;51.608;6.916;2022-11-13T07:01:05;5.40;99.90
15713;DHT22;7957;51.608;6.916;2022-11-13T07:03:39;5.40;99.90
15713;DHT22;7957;51.608;6.916;2022-11-13T07:06:08;5.40;99.90
15713;DHT22;7957;51.608;6.916;2022-11-13T07:08:38;5.40;99.90
15713;DHT22;7957;51.608;6.916;2022-11-13T07:11:06;5.40;99.90
15713;DHT22;7957;51.608;6.916;2022-11-13T07:13:33;5.40;99.90
15713;DHT22;7957;51.608;6.916;2022-11-13T07:16:01;5.40;99.90
15713;DHT22;7957;51.608;6.916;2022-11-13T07:18:30;5.40;99.90
15713;DHT22;7957;51.608;6.916;2022-11-13T07:20:57;5.50;99.90
15713;DHT22;7957;51.608;6.916;2022-11-13T07:23:24;5.40;99.90
15713;DHT22;7957;51.608;6.916;2022-11-13T07:25:52;5.50;99.90
15713;DHT22;7957;51.608;6.916;2022-11-13T07:28:20;5.50;99.90
15713;DHT22;7957;51.608;6.916;2022-11-13T07:30:47;5.50;99.90
15713;DHT22;7957;51.608;6.916;2022-11-13T07:33:14;5.50;99.90
15713;DHT22;7957;51.608;6.916;2022-11-13T07:35:42;5.50;99.90
15713;DHT22;7957;51.608;6.916;2022-11-13T07:38:09;5.40;99.90
15713;DHT22;7957;51.608;6.916;2022-11-13T07:40:36;5.50;99.90
15713;DHT22;7957;51.608;6.916;2022-11-13T07:43:04;5.50;99.90
15713;DHT22;7957;51.608;6.916;2022-11-13T07:45:30;5.50;99.90
15713;DHT22;7957;51.608;6.916;2022-11-13T07:47:58;5.50;99.90
15713;DHT22;7957;51.608;6.916;2022-11-13T07:50:25;5.50;99.90
15713;DHT22;7957;51.608;6.916;2022-11-13T07:52:59;5.50;99.90
15713;DHT22;7957;51.608;6.916;2022-11-13T07:55:26;5.50;99.90
15713;DHT22;7957;51.608;6.916;2022-11-13T07:57:54;5.50;99.90
15713;DHT22;7957;51.608;6.916;2022-11-13T08:00:22;5.50;99.90
15713;DHT22;7957;51.608;6.916;2022-11-13T08:02:49;5.60;99.90
15713;DHT22;7957;51.608;6.916;2022-11-13T08:05:18;5.60;99.90
15713;DHT22;7957;51.608;6.916;2022-11-13T08:07:46;5.60;99.90
15713;DHT22;7957;51.608;6.916;2022-11-13T08:10:15;5.60;99.90
15713;DHT22;7957;51.608;6.916;2022-11-13T08:12:42;5.70;99.90
15713;DHT22;7957;51.608;6.916;2022-11-13T08:15:09;5.70;99.90
15713;DHT22;7957;51.608;6.916;2022-11-13T08:17:37;5.80;99.90
15713;DHT22;7957;51.608;6.916;2022-11-13T08:20:05;5.90;99.90
15713;DHT22;7957;51.608;6.916;2022-11-13T08:22:32;5.90;99.90
15713;DHT22;7957;51.608;6.916;2022-11-13T08:25:00;5.90;99.90
15713;DHT22;7957;51.608;6.916;2022-11-13T08:27:30;6.00;99.90
15713;DHT22;7957;51.608;6.916;2022-11-13T08:29:56;6.10;99.90
15713;DHT22;7957;51.608;6.916;2022-11-13T08:32:23;6.20;99.90
15713;DHT22;7957;51.608;6.916;2022-11-13T08:34:50;6.30;99.90
15713;DHT22;7957;51.608;6.916;2022-11-13T08:37:17;6.40;99.90
15713;DHT22;7957;51.608;6.916;2022-11-13T08:39:44;6.50;99.90
15713;DHT22;7957;51.608;6.916;2022-11-13T08:42:11;6.60;99.90
15713;DHT22;7957;51.608;6.916;2022-11-13T08:44:39;6.60;99.90
15713;DHT22;7957;51.608;6.916;2022-11-13T08:47:15;6.70;99.90
15713;DHT22;7957;51.608;6.916;2022-11-13T08:49:42;6.70;99.90
15713;DHT22;7957;51.608;6.916;2022-11-13T08:52:09;6.80;99.90
15713;DHT22;7957;51.608;6.916;2022-11-13T08:54:36;6.80;99.90
15713;DHT22;7957;51.608;6.916;2022-11-13T08:57:03;6.80;99.90
15713;DHT22;7957;51.608;6.916;2022-11-13T08:59:30;6.80;99.90
15713;DHT22;7957;51.608;6.916;2022-11-13T09:01:58;6.80;99.90
15713;DHT22;7957;51.608;6.916;2022-11-13T09:04:25;6.80;99.90
15713;DHT22;7957;51.608;6.916;2022-11-13T09:06:53;6.80;99.90
15713;DHT22;7957;51.608;6.916;2022-11-13T09:09:21;6.80;99.90
15713;DHT22;7957;51.608;6.916;2022-11-13T09:11:48;6.80;99.90
15713;DHT22;7957;51.608;6.916;2022-11-13T09:14:16;6.90;99.90
15713;DHT22;7957;51.608;6.916;2022-11-13T09:16:42;6.90;99.90
15713;DHT22;7957;51.608;6.916;2022-11-13T09:19:11;6.90;99.90
15713;DHT22;7957;51.608;6.916;2022-11-13T09:21:38;6.90;99.90
15713;DHT22;7957;51.608;6.916;2022-11-13T09:24:05;6.90;99.90
15713;DHT22;7957;51.608;6.916;2022-11-13T09:26:33;6.90;99.90
15713;DHT22;7957;51.608;6.916;2022-11-13T09:29:00;7.00;99.90
15713;DHT22;7957;51.608;6.916;2022-11-13T09:31:27;6.90;99.90
15713;DHT22;7957;51.608;6.916;2022-11-13T09:33:54;6.90;99.90
15713;DHT22;7957;51.608;6.916;2022-11-13T09:36:22;6.90;99.90
15713;DHT22;7957;51.608;6.916;2022-11-13T09:38:49;6.90;99.90
15713;DHT22;7957;51.608;6.916;2022-11-13T09:41:20;6.90;99.90
15713;DHT22;7957;51.608;6.916;2022-11-13T09:43:49;6.90;99.90
15713;DHT22;7957;51.608;6.916;2022-11-13T09:46:19;6.90;99.90
15713;DHT22;7957;51.608;6.916;2022-11-13T09:48:51;6.90;99.90
15713;DHT22;7957;51.608;6.916;2022-11-13T09:51:23;6.90;99.90
15713;DHT22;7957;51.608;6.916;2022-11-13T09:53:51;7.00;99.90
15713;DHT22;7957;51.608;6.916;2022-11-13T09:56:27;7.00;99.90
15713;DHT22;7957;51.608;6.916;2022-11-13T09:59:01;7.00;99.90
15713;DHT22;7957;51.608;6.916;2022-11-13T10:01:40;7.00;99.90
15713;DHT22;7957;51.608;6.916;2022-11-13T10:04:14;7.00;99.90
15713;DHT22;7957;51.608;6.916;2022-11-13T10:06:59;7.10;99.90
15713;DHT22;7957;51.608;6.916;2022-11-13T10:12:16;7.10;99.90
15713;DHT22;7957;51.608;6.916;2022-11-13T10:14:45;7.10;99.90
15713;DHT22;7957;51.608;6.916;2022-11-13T10:17:17;7.20;99.90
15713;DHT22;7957;51.608;6.916;2022-11-13T10:19:52;7.20;99.90
15713;DHT22;7957;51.608;6.916;2022-11-13T10:22:27;7.20;99.90
15713;DHT22;7957;51.608;6.916;2022-11-13T10:25:03;7.20;99.90
15713;DHT22;7957;51.608;6.916;2022-11-13T10:27:30;7.30;99.90
15713;DHT22;7957;51.608;6.916;2022-11-13T10:29:57;7.30;99.90
15713;DHT22;7957;51.608;6.916;2022-11-13T10:32:25;7.40;99.90
15713;DHT22;7957;51.608;6.916;2022-11-13T10:34:57;7.40;99.90
15713;DHT22;7957;51.608;6.916;2022-11-13T10:37:41;7.40;99.90
15713;DHT22;7957;51.608;6.916;2022-11-13T10:40:09;7.50;99.90
15713;DHT22;7957;51.608;6.916;2022-11-13T10:42:37;7.50;99.90
15713;DHT22;7957;51.608;6.916;2022-11-13T10:45:14;7.50;99.90
15713;DHT22;7957;51.608;6.916;2022-11-13T10:47:46;7.50;99.90
15713;DHT22;7957;51.608;6.916;2022-11-13T10:50:19;7.60;99.90
15713;DHT22;7957;51.608;6.916;2022-11-13T10:52:49;7.60;99.90
15713;DHT22;7957;51.608;6.916;2022-11-13T10:55:21;7.60;99.90
15713;DHT22;7957;51.608;6.916;2022-11-13T10:57:55;7.60;99.90
15713;DHT22;7957;51.608;6.916;2022-11-13T11:00:25;7.70;99.90
15713;DHT22;7957;51.608;6.916;2022-11-13T11:02:52;7.70;99.90
15713;DHT22;7957;51.608;6.916;2022-11-13T11:05:22;7.70;99.90
15713;DHT22;7957;51.608;6.916;2022-11-13T11:07:51;7.70;99.90
15713;DHT22;7957;51.608;6.916;2022-11-13T11:10:21;7.80;99.90
15713;DHT22;7957;51.608;6.916;2022-11-13T11:12:52;7.80;99.90
15713;DHT22;7957;51.608;6.916;2022-11-13T11:15:23;7.90;99.90
15713;DHT22;7957;51.608;6.916;2022-11-13T11:17:53;7.90;99.90
15713;DHT22;7957;51.608;6.916;2022-11-13T11:20:26;7.90;99.90
15713;DHT22;7957;51.608;6.916;2022-11-13T11:23:01;8.00;99.90
15713;DHT22;7957;51.608;6.916;2022-11-13T11:25:35;8.00;99.90
15713;DHT22;7957;51.608;6.916;2022-11-13T11:28:08;8.00;99.90
15713;DHT22;7957;51.608;6.916;2022-11-13T11:30:43;8.10;99.90
15713;DHT22;7957;51.608;6.916;2022-11-13T11:33:14;8.10;99.90
15713;DHT22;7957;51.608;6.916;2022-11-13T11:35:45;8.20;99.90
15713;DHT22;7957;51.608;6.916;2022-11-13T11:38:20;8.20;99.90
15713;DHT22;7957;51.608;6.916;2022-11-13T11:40:51;8.20;99.90
15713;DHT22;7957;51.608;6.916;2022-11-13T11:43:22;8.30;99.90
15713;DHT22;7957;51.608;6.916;2022-11-13T11:45:52;8.30;99.90
15713;DHT22;7957;51.608;6.916;2022-11-13T11:48:23;8.30;99.90
15713;DHT22;7957;51.608;6.916;2022-11-13T11:50:56;8.30;99.90
15713;DHT22;7957;51.608;6.916;2022-11-13T11:53:36;8.30;99.90
15713;DHT22;7957;51.608;6.916;2022-11-13T11:56:14;8.40;99.90
15713;DHT22;7957;51.608;6.916;2022-11-13T11:58:57;8.40;99.90
15713;DHT22;7957;51.608;6.916;2022-11-13T12:01:46;8.50;99.90
15713;DHT22;7957;51.608;6.916;2022-11-13T12:04:29;8.60;99.90
15713;DHT22;7957;51.608;6.916;2022-11-13T12:07:07;8.60;99.90
15713;DHT22;7957;51.608;6.916;2022-11-13T12:09:42;8.60;99.90
15713;DHT22;7957;51.608;6.916;2022-11-13T12:12:18;8.70;99.90
15713;DHT22;7957;51.608;6.916;2022-11-13T12:14:52;8.70;99.90
15713;DHT22;7957;51.608;6.916;2022-11-13T12:17:47;8.70;99.90
15713;DHT22;7957;51.608;6.916;2022-11-13T12:20:24;8.70;99.90
15713;DHT22;7957;51.608;6.916;2022-11-13T12:22:59;8.80;99.90
15713;DHT22;7957;51.608;6.916;2022-11-13T12:25:35;8.80;99.90
15713;DHT22;7957;51.608;6.916;2022-11-13T12:28:13;8.90;99.90
15713;DHT22;7957;51.608;6.916;2022-11-13T12:30:51;8.90;99.90
15713;DHT22;7957;51.608;6.916;2022-11-13T12:33:28;8.90;99.90
15713;DHT22;7957;51.608;6.916;2022-11-13T12:35:59;8.90;99.90
15713;DHT22;7957;51.608;6.916;2022-11-13T12:38:35;9.00;99.90
15713;DHT22;7957;51.608;6.916;2022-11-13T12:41:11;9.00;99.90
15713;DHT22;7957;51.608;6.916;2022-11-13T12:46:34;9.10;99.90
15713;DHT22;7957;51.608;6.916;2022-11-13T12:49:13;9.10;99.90
15713;DHT22;7957;51.608;6.916;2022-11-13T12:51:40;9.10;99.90
15713;DHT22;7957;51.608;6.916;2022-11-13T12:54:24;9.10;99.90
15713;DHT22;7957;51.608;6.916;2022-11-13T12:57:05;9.20;99.90
15713;DHT22;7957;51.608;6.916;2022-11-13T12:59:35;9.20;99.90
15713;DHT22;7957;51.608;6.916;2022-11-13T13:05:17;9.20;99.90
15713;DHT22;7957;51.608;6.916;2022-11-13T13:08:17;9.30;99.90
15713;DHT22;7957;51.608;6.916;2022-11-13T13:11:03;9.30;99.90
15713;DHT22;7957;51.608;6.916;2022-11-13T13:13:40;9.30;99.90
15713;DHT22;7957;51.608;6.916;2022-11-13T13:16:10;9.30;99.90
15713;DHT22;7957;51.608;6.916;2022-11-13T13:18:38;9.30;99.90
15713;DHT22;7957;51.608;6.916;2022-11-13T13:21:07;9.30;99.90
15713;DHT22;7957;51.608;6.916;2022-11-13T13:23:36;9.30;99.90
15713;DHT22;7957;51.608;6.916;2022-11-13T13:26:11;9.30;99.90
15713;DHT22;7957;51.608;6.916;2022-11-13T13:28:48;9.40;99.90
15713;DHT22;7957;51.608;6.916;2022-11-13T13:31:28;9.40;99.90
15713;DHT22;7957;51.608;6.916;2022-11-13T13:34:10;9.40;99.90
15713;DHT22;7957;51.608;6.916;2022-11-13T13:36:43;9.40;99.90
15713;DHT22;7957;51.608;6.916;2022-11-13T13:39:26;9.40;99.90
15713;DHT22;7957;51.608;6.916;2022-11-13T13:42:17;9.50;99.90
15713;DHT22;7957;51.608;6.916;2022-11-13T13:44:58;9.50;87.60
15713;DHT22;7957;51.608;6.916;2022-11-13T13:47:29;9.50;1.00
15713;DHT22;7957;51.608;6.916;2022-11-13T13:49:58;9.50;1.00
15713;DHT22;7957;51.608;6.916;2022-11-13T13:52:27;9.50;1.00
15713;DHT22;7957;51.608;6.916;2022-11-13T13:54:55;9.50;1.00
15713;DHT22;7957;51.608;6.916;2022-11-13T13:57:24;9.60;1.00
15713;DHT22;7957;51.608;6.916;2022-11-13T13:59:53;9.60;1.00
15713;DHT22;7957;51.608;6.916;2022-11-13T14:02:22;9.60;1.00
15713;DHT22;7957;51.608;6.916;2022-11-13T14:04:50;9.60;1.00
15713;DHT22;7957;51.608;6.916;2022-11-13T14:07:23;9.60;99.90
15713;DHT22;7957;51.608;6.916;2022-11-13T14:10:04;9.70;99.90
15713;DHT22;7957;51.608;6.916;2022-11-13T14:12:31;9.70;99.90
15713;DHT22;7957;51.608;6.916;2022-11-13T14:15:03;9.70;99.90
15713;DHT22;7957;51.608;6.916;2022-11-13T14:17:30;9.70;67.40
15713;DHT22;7957;51.608;6.916;2022-11-13T14:19:59;9.70;1.00
15713;DHT22;7957;51.608;6.916;2022-11-13T14:22:26;9.70;1.00
15713;DHT22;7957;51.608;6.916;2022-11-13T14:24:56;9.70;1.00
15713;DHT22;7957;51.608;6.916;2022-11-13T14:27:25;9.60;99.90
15713;DHT22;7957;51.608;6.916;2022-11-13T14:29:55;9.70;99.90
15713;DHT22;7957;51.608;6.916;2022-11-13T14:32:26;9.70;99.90
15713;DHT22;7957;51.608;6.916;2022-11-13T14:34:56;9.70;99.90
15713;DHT22;7957;51.608;6.916;2022-11-13T14:37:25;9.70;99.90
15713;DHT22;7957;51.608;6.916;2022-11-13T14:39:53;9.70;99.90
15713;DHT22;7957;51.608;6.916;2022-11-13T14:42:25;9.70;97.30
15713;DHT22;7957;51.608;6.916;2022-11-13T14:44:53;9.70;51.40
15713;DHT22;7957;51.608;6.916;2022-11-13T14:47:32;9.70;33.40
15713;DHT22;7957;51.608;6.916;2022-11-13T14:50:17;9.70;27.50
15713;DHT22;7957;51.608;6.916;2022-11-13T14:52:55;9.70;30.30
15713;DHT22;7957;51.608;6.916;2022-11-13T14:55:24;9.70;17.70
15713;DHT22;7957;51.608;6.916;2022-11-13T14:57:51;9.70;25.00
15713;DHT22;7957;51.608;6.916;2022-11-13T15:00:25;9.70;44.20
15713;DHT22;7957;51.608;6.916;2022-11-13T15:02:54;9.70;63.90
15713;DHT22;7957;51.608;6.916;2022-11-13T15:05:21;9.60;99.90
15713;DHT22;7957;51.608;6.916;2022-11-13T15:07:48;9.60;99.90
15713;DHT22;7957;51.608;6.916;2022-11-13T15:10:17;9.60;99.90
15713;DHT22;7957;51.608;6.916;2022-11-13T15:12:44;9.50;99.90
15713;DHT22;7957;51.608;6.916;2022-11-13T15:15:14;9.50;99.90
15713;DHT22;7957;51.608;6.916;2022-11-13T15:17:42;9.50;99.90
15713;DHT22;7957;51.608;6.916;2022-11-13T15:20:13;9.40;99.90
15713;DHT22;7957;51.608;6.916;2022-11-13T15:22:41;9.40;99.90
15713;DHT22;7957;51.608;6.916;2022-11-13T15:25:12;9.30;1.00
15713;DHT22;7957;51.608;6.916;2022-11-13T15:27:39;9.30;1.00
15713;DHT22;7957;51.608;6.916;2022-11-13T15:30:07;9.20;1.00
15713;DHT22;7957;51.608;6.916;2022-11-13T15:32:34;9.20;1.00
15713;DHT22;7957;51.608;6.916;2022-11-13T15:35:01;9.10;1.00
15713;DHT22;7957;51.608;6.916;2022-11-13T15:37:29;9.10;1.00
15713;DHT22;7957;51.608;6.916;2022-11-13T15:39:56;9.00;1.00
15713;DHT22;7957;51.608;6.916;2022-11-13T15:42:26;9.00;1.00
15713;DHT22;7957;51.608;6.916;2022-11-13T15:44:54;8.90;1.00
15713;DHT22;7957;51.608;6.916;2022-11-13T15:47:27;8.80;14.40
15713;DHT22;7957;51.608;6.916;2022-11-13T15:49:54;8.80;99.90
15713;DHT22;7957;51.608;6.916;2022-11-13T15:52:22;8.70;99.90
15713;DHT22;7957;51.608;6.916;2022-11-13T15:54:51;8.70;99.90
15713;DHT22;7957;51.608;6.916;2022-11-13T15:57:20;8.60;1.00
15713;DHT22;7957;51.608;6.916;2022-11-13T15:59:47;8.60;1.00
15713;DHT22;7957;51.608;6.916;2022-11-13T16:02:14;8.50;1.00
15713;DHT22;7957;51.608;6.916;2022-11-13T16:04:42;8.50;1.00
15713;DHT22;7957;51.608;6.916;2022-11-13T16:07:13;8.40;1.00
15713;DHT22;7957;51.608;6.916;2022-11-13T16:09:41;8.40;32.90
15713;DHT22;7957;51.608;6.916;2022-11-13T16:12:11;8.30;99.90
15713;DHT22;7957;51.608;6.916;2022-11-13T16:14:38;8.30;99.90
15713;DHT22;7957;51.608;6.916;2022-11-13T16:17:10;8.20;99.90
15713;DHT22;7957;51.608;6.916;2022-11-13T16:19:37;8.20;99.90
15713;DHT22;7957;51.608;6.916;2022-11-13T16:22:15;8.10;99.90
15713;DHT22;7957;51.608;6.916;2022-11-13T16:24:44;8.10;99.90
15713;DHT22;7957;51.608;6.916;2022-11-13T16:27:14;8.00;99.90